Time;durP1;ratioP1;P1;durP2;ratioP2;P2;SDS_P1;SDS_P2;PMS_P1;PMS_P2;Temp;Humidity;BMP_temperature;BMP_pressure;BME280_temperature;BME280_humidity;BME280_pressure;Samples;Min_cycle;Max_cycle;Signal;HPM_P1;HPM_P2
2023/07/16 00:00:35;;;;;;;;;;;;;;;17.24;79.70;99338.09;6228238;22;19919;-92
2023/07/16 00:03:02;;;;;;;;;;;;;;;17.20;80.17;99342.75;6252713;22;20008;-93
2023/07/16 00:05:28;;;;;;;;;;;;;;;17.18;80.16;99341.50;6229840;22;19919;-92
2023/07/16 00:07:54;;;;;;;;;;;;;;;17.20;80.46;99341.94;6228171;22;19942;-90
2023/07/16 00:10:20;;;;;;;;;;;;;;;17.15;80.10;99345.75;6281384;22;20332;-93
2023/07/16 00:12:47;;;;;;;;;;;;;;;17.08;80.89;99342.81;6229078;22;19969;-93
2023/07/16 00:15:13;;;;;;;;;;;;;;;17.02;81.11;99345.06;6229074;22;19923;-93
2023/07/16 00:17:40;;;;;;;;;;;;;;;17.03;81.40;99348.63;6228195;22;20264;-93
2023/07/16 00:20:06;;;;;;;;;;;;;;;17.07;81.03;99344.00;6228633;22;19920;-93
2023/07/16 00:22:32;;;;;;;;;;;;;;;17.08;80.93;99351.13;6227022;22;19919;-94
2023/07/16 00:24:58;;;;;;;;;;;;;;;17.07;80.80;99344.00;6226574;22;20238;-93
2023/07/16 00:27:23;;;;;;;;;;;;;;;17.00;81.01;99344.63;6227917;22;19919;-93
2023/07/16 00:29:49;;;;;;;;;;;;;;;17.00;81.24;99346.56;6227407;22;19926;-91
2023/07/16 00:32:15;;;;;;;;;;;;;;;16.97;81.35;99348.09;6226751;22;19919;-91
2023/07/16 00:34:41;;;;;;;;;;;;;;;16.97;81.20;99344.53;6226913;22;19919;-92
2023/07/16 00:37:07;;;;;;;;;;;;;;;16.97;81.44;99352.81;6226240;22;19944;-94
2023/07/16 00:39:33;;;;;;;;;;;;;;;16.96;81.21;99349.25;6227637;22;20349;-93
2023/07/16 00:41:59;;;;;;;;;;;;;;;16.95;80.91;99349.59;6228396;22;20361;-94
2023/07/16 00:44:25;;;;;;;;;;;;;;;16.97;81.08;99352.81;6229371;22;19925;-91
2023/07/16 00:46:51;;;;;;;;;;;;;;;16.97;81.08;99359.13;6229577;22;19919;-93
2023/07/16 00:49:18;;;;;;;;;;;;;;;16.98;81.57;99354.41;6254195;22;19923;-93
2023/07/16 00:51:44;;;;;;;;;;;;;;;16.94;81.82;99357.06;6227962;22;19926;-93
2023/07/16 00:54:11;;;;;;;;;;;;;;;16.94;82.10;99367.31;6254381;22;20011;-93
2023/07/16 00:56:37;;;;;;;;;;;;;;;16.94;82.04;99362.59;6228204;22;19926;-93
2023/07/16 00:59:03;;;;;;;;;;;;;;;16.96;82.24;99360.28;6226990;22;19930;-93
2023/07/16 01:01:29;;;;;;;;;;;;;;;17.00;82.13;99365.91;6226574;22;19920;-93
2023/07/16 01:03:55;;;;;;;;;;;;;;;17.00;82.35;99366.72;6226541;22;20353;-94
2023/07/16 01:06:30;;;;;;;;;;;;;;;16.97;82.22;99363.84;6252213;22;20510;-91
2023/07/16 01:08:55;;;;;;;;;;;;;;;16.97;82.45;99370.19;6225498;22;19919;-93
2023/07/16 01:11:22;;;;;;;;;;;;;;;17.03;82.34;99368.75;6225642;22;19938;-94
2023/07/16 01:13:48;;;;;;;;;;;;;;;17.09;82.22;99378.41;6226456;22;19919;-93
2023/07/16 01:16:20;;;;;;;;;;;;;;;17.11;81.89;99378.81;6226444;22;20370;-93
2023/07/16 01:18:46;;;;;;;;;;;;;;;17.10;82.16;99379.19;6226728;22;19919;-93
2023/07/16 01:21:12;;;;;;;;;;;;;;;17.08;81.88;99375.97;6227684;22;20261;-93
2023/07/16 01:23:57;;;;;;;;;;;;;;;17.12;81.98;99387.94;6227826;22;19919;-94
2023/07/16 01:26:22;;;;;;;;;;;;;;;17.09;81.95;99385.88;6228533;22;20387;-93
2023/07/16 01:28:56;;;;;;;;;;;;;;;17.13;81.94;99387.56;6228846;22;19969;-94
2023/07/16 01:31:22;;;;;;;;;;;;;;;17.18;81.62;99393.97;6226425;22;19919;-93
2023/07/16 01:33:49;;;;;;;;;;;;;;;17.18;81.56;99391.22;6228238;22;19927;-93
2023/07/16 01:36:16;;;;;;;;;;;;;;;17.25;81.75;99396.91;6228404;22;20001;-92
2023/07/16 01:38:42;;;;;;;;;;;;;;;17.24;81.20;99395.31;6225725;22;19919;-92
2023/07/16 01:41:08;;;;;;;;;;;;;;;17.27;81.54;99389.09;6250773;22;19923;-92
2023/07/16 01:43:33;;;;;;;;;;;;;;;17.29;81.58;99386.78;6250791;22;19919;-92
2023/07/16 01:45:59;;;;;;;;;;;;;;;17.32;81.49;99391.59;6225238;22;19923;-92
2023/07/16 01:48:35;;;;;;;;;;;;;;;17.35;81.44;99394.47;6225829;22;20333;-92
2023/07/16 01:51:02;;;;;;;;;;;;;;;17.42;81.12;99395.75;6226066;22;19926;-93
2023/07/16 01:53:28;;;;;;;;;;;;;;;17.39;81.16;99400.06;6251159;22;19915;-91
2023/07/16 01:55:54;;;;;;;;;;;;;;;17.42;80.67;99402.13;6225868;22;19919;-93
2023/07/16 01:58:20;;;;;;;;;;;;;;;17.46;80.65;99410.50;6225638;22;19947;-92
2023/07/16 02:00:49;;;;;;;;;;;;;;;17.46;80.78;99405.78;6227678;22;19926;-93
2023/07/16 02:03:16;;;;;;;;;;;;;;;17.43;81.14;99412.00;6228703;22;19965;-93
2023/07/16 02:05:42;;;;;;;;;;;;;;;17.43;81.54;99400.94;6253887;22;19926;-93
2023/07/16 02:08:09;;;;;;;;;;;;;;;17.46;80.96;99403.00;6229349;22;19919;-93
2023/07/16 02:10:35;;;;;;;;;;;;;;;17.51;80.02;99404.69;6228624;22;20420;-92
2023/07/16 02:13:01;;;;;;;;;;;;;;;17.49;79.51;99404.25;6231572;22;20345;-93
2023/07/16 02:15:27;;;;;;;;;;;;;;;17.50;79.31;99406.66;6233903;22;19946;-92
2023/07/16 02:17:53;;;;;;;;;;;;;;;17.45;79.33;99406.09;6231683;22;19922;-93
2023/07/16 02:20:18;;;;;;;;;;;;;;;17.51;79.66;99408.25;6230663;22;19918;-92
2023/07/16 02:22:45;;;;;;;;;;;;;;;17.54;79.85;99415.81;6230269;22;19918;-93
2023/07/16 02:25:11;;;;;;;;;;;;;;;17.58;78.66;99415.91;6256734;22;19919;-91
2023/07/16 02:27:38;;;;;;;;;;;;;;;17.60;79.08;99417.16;6230562;22;19953;-92
2023/07/16 02:30:05;;;;;;;;;;;;;;;17.67;78.97;99415.75;6230444;22;20344;-91
2023/07/16 02:32:31;;;;;;;;;;;;;;;17.69;79.10;99410.66;6230373;22;19980;-92
2023/07/16 02:35:00;;;;;;;;;;;;;;;17.75;79.20;99415.56;6231059;22;19926;-92
2023/07/16 02:37:27;;;;;;;;;;;;;;;17.80;79.08;99408.97;6229862;22;19919;-93
2023/07/16 02:39:53;;;;;;;;;;;;;;;17.76;78.88;99403.38;6230257;22;19919;-93
2023/07/16 02:42:19;;;;;;;;;;;;;;;17.83;78.98;99405.50;6232127;22;19925;-92
2023/07/16 02:44:45;;;;;;;;;;;;;;;17.88;78.95;99408.00;6232967;22;19926;-93
2023/07/16 02:47:11;;;;;;;;;;;;;;;17.83;78.74;99414.59;6232487;22;19919;-91
2023/07/16 02:49:37;;;;;;;;;;;;;;;17.87;77.68;99411.09;6232578;22;20256;-92
2023/07/16 02:52:05;;;;;;;;;;;;;;;17.86;77.82;99417.81;6258258;22;19977;-91
2023/07/16 02:54:37;;;;;;;;;;;;;;;17.91;78.26;99417.53;6232393;22;19984;-92
2023/07/16 02:57:03;;;;;;;;;;;;;;;17.94;77.88;99423.13;6232037;22;19930;-91
2023/07/16 02:59:29;;;;;;;;;;;;;;;17.95;78.40;99426.72;6232290;22;20005;-92
2023/07/16 03:01:55;;;;;;;;;;;;;;;18.01;77.68;99422.50;6231985;22;19926;-92
2023/07/16 03:04:21;;;;;;;;;;;;;;;18.10;77.63;99431.41;6232899;22;19926;-91
2023/07/16 03:06:47;;;;;;;;;;;;;;;18.17;76.93;99434.31;6233064;22;19918;-94
2023/07/16 03:09:13;;;;;;;;;;;;;;;18.15;75.83;99427.56;6232924;22;20310;-93
2023/07/16 03:11:39;;;;;;;;;;;;;;;18.09;76.00;99427.03;6232605;22;19919;-93
2023/07/16 03:14:04;;;;;;;;;;;;;;;18.17;75.84;99422.47;6226058;22;19926;-93
2023/07/16 03:16:31;;;;;;;;;;;;;;;18.21;76.17;99423.34;6252403;22;20012;-92
2023/07/16 03:18:57;;;;;;;;;;;;;;;18.15;75.56;99420.06;6229397;22;19923;-93
2023/07/16 03:21:23;;;;;;;;;;;;;;;18.21;76.08;99424.16;6228737;22;20411;-91
2023/07/16 03:23:48;;;;;;;;;;;;;;;18.25;75.54;99436.09;6229408;22;20009;-93
2023/07/16 03:26:14;;;;;;;;;;;;;;;18.33;75.87;99430.72;6228084;22;20317;-93
2023/07/16 03:28:40;;;;;;;;;;;;;;;18.42;75.79;99434.88;6229038;22;19945;-93
2023/07/16 03:31:09;;;;;;;;;;;;;;;18.45;75.81;99436.94;6228582;22;19926;-94
2023/07/16 03:33:37;;;;;;;;;;;;;;;18.54;75.15;99445.84;6228417;22;20352;-94
2023/07/16 03:36:03;;;;;;;;;;;;;;;18.57;74.81;99435.97;6227636;22;20337;-93
2023/07/16 03:38:30;;;;;;;;;;;;;;;18.54;74.47;99433.94;6226898;22;19919;-92
2023/07/16 03:40:56;;;;;;;;;;;;;;;18.53;74.92;99435.09;6227331;22;19926;-92
2023/07/16 03:43:24;;;;;;;;;;;;;;;18.48;75.11;99444.50;6228319;22;19957;-93
2023/07/16 03:49:40;;;;;;;;;;;;;;;18.54;75.42;99443.06;6278037;22;19924;-93
2023/07/16 03:52:39;;;;;;;;;;;;;;;18.52;74.58;99448.16;6237731;22;20929;-92
2023/07/16 03:55:29;;;;;;;;;;;;;;;18.47;75.19;99453.97;6228388;22;19997;-92
2023/07/16 03:58:39;;;;;;;;;;;;;;;18.58;75.36;99448.69;6218858;23;19927;-92
2023/07/16 04:01:24;;;;;;;;;;;;;;;18.65;75.03;99451.59;6199987;23;19947;-92
2023/07/16 04:06:52;;;;;;;;;;;;;;;18.52;75.25;99459.22;6218160;23;19978;-91
2023/07/16 04:09:17;;;;;;;;;;;;;;;18.54;75.53;99456.09;6166955;23;19920;-91
2023/07/16 04:11:43;;;;;;;;;;;;;;;18.62;75.19;99459.81;6142578;23;20261;-91
2023/07/16 04:14:09;;;;;;;;;;;;;;;18.66;75.50;99463.47;6142597;23;19920;-91
2023/07/16 04:16:35;;;;;;;;;;;;;;;18.75;75.27;99459.34;6144051;23;20334;-92
2023/07/16 04:19:01;;;;;;;;;;;;;;;18.80;75.11;99458.25;6169959;23;19927;-91
2023/07/16 04:21:27;;;;;;;;;;;;;;;18.70;74.74;99451.28;6146808;23;19920;-93
2023/07/16 04:23:53;;;;;;;;;;;;;;;18.66;74.73;99452.38;6166211;23;19920;-89
2023/07/16 04:26:19;;;;;;;;;;;;;;;18.72;75.29;99460.06;6140570;23;19927;-90
2023/07/16 04:28:45;;;;;;;;;;;;;;;18.83;74.20;99454.75;6168218;23;19920;-89
2023/07/16 04:31:10;;;;;;;;;;;;;;;18.90;74.23;99454.09;6140812;23;19924;-89
2023/07/16 04:33:36;;;;;;;;;;;;;;;18.91;73.60;99459.28;6140971;23;20342;-88
2023/07/16 04:36:02;;;;;;;;;;;;;;;18.94;73.62;99455.78;6165163;23;20372;-89
2023/07/16 04:38:28;;;;;;;;;;;;;;;19.07;74.32;99456.41;6166421;23;19928;-89
2023/07/16 04:40:54;;;;;;;;;;;;;;;19.17;74.15;99457.78;6195137;23;19983;-89
2023/07/16 04:43:19;;;;;;;;;;;;;;;19.19;73.86;99461.78;6142933;23;19927;-87
2023/07/16 04:45:46;;;;;;;;;;;;;;;19.18;72.72;99462.16;6193847;23;20425;-91
2023/07/16 04:48:13;;;;;;;;;;;;;;;19.23;73.91;99467.41;6140941;23;19920;-89
2023/07/16 04:50:39;;;;;;;;;;;;;;;19.12;73.33;99469.16;6145623;23;19924;-90
2023/07/16 04:53:05;;;;;;;;;;;;;;;19.11;73.25;99468.38;6142064;23;19920;-89
2023/07/16 04:55:37;;;;;;;;;;;;;;;19.21;73.65;99464.19;6167728;23;19920;-92
2023/07/16 04:58:03;;;;;;;;;;;;;;;19.25;72.98;99465.06;6167859;23;20239;-89
2023/07/16 05:00:31;;;;;;;;;;;;;;;19.31;72.41;99469.16;6169943;23;19920;-92
2023/07/16 05:02:57;;;;;;;;;;;;;;;19.42;73.18;99463.78;6142278;23;20002;-92
2023/07/16 05:05:22;;;;;;;;;;;;;;;19.39;72.36;99465.31;6170981;23;20590;-90
2023/07/16 05:07:48;;;;;;;;;;;;;;;19.26;72.29;99461.13;6168400;23;19924;-89
2023/07/16 05:10:14;;;;;;;;;;;;;;;19.22;72.67;99461.06;6144763;23;19924;-91
2023/07/16 05:12:40;;;;;;;;;;;;;;;19.23;72.28;99467.41;6145049;23;19927;-90
2023/07/16 05:15:06;;;;;;;;;;;;;;;19.10;73.47;99472.28;6146603;23;19920;-90
2023/07/16 05:17:32;;;;;;;;;;;;;;;18.91;73.53;99466.78;6150377;23;20349;-91
2023/07/16 05:19:59;;;;;;;;;;;;;;;18.90;73.67;99470.72;6172705;23;19944;-90
2023/07/16 05:22:24;;;;;;;;;;;;;;;19.00;74.10;99470.13;6169615;23;20400;-89
2023/07/16 05:24:51;;;;;;;;;;;;;;;19.08;73.18;99471.88;6168425;23;19927;-89
2023/07/16 05:27:17;;;;;;;;;;;;;;;19.17;72.98;99468.84;6167659;23;19920;-89
2023/07/16 05:29:43;;;;;;;;;;;;;;;19.22;73.78;99477.69;6143831;23;19915;-89
2023/07/16 05:32:08;;;;;;;;;;;;;;;19.25;72.93;99467.84;6167795;23;19933;-89
2023/07/16 05:34:34;;;;;;;;;;;;;;;19.33;73.90;99477.06;6191441;23;19916;-90
2023/07/16 05:37:00;;;;;;;;;;;;;;;19.30;72.86;99477.81;6140409;23;20368;-89
2023/07/16 05:39:27;;;;;;;;;;;;;;;19.39;73.05;99478.38;6189781;23;19920;-91
2023/07/16 05:41:52;;;;;;;;;;;;;;;19.47;72.08;99478.16;6165909;23;19926;-89
2023/07/16 05:44:20;;;;;;;;;;;;;;;19.56;72.75;99479.88;6141675;23;19951;-91
2023/07/16 05:46:45;;;;;;;;;;;;;;;19.66;72.20;99480.09;6146862;23;20007;-91
2023/07/16 05:49:13;;;;;;;;;;;;;;;19.72;71.94;99472.25;6206113;23;19951;-91
2023/07/16 05:51:40;;;;;;;;;;;;;;;19.77;71.17;99469.19;6177279;23;19944;-89
2023/07/16 05:54:06;;;;;;;;;;;;;;;19.85;71.59;99482.00;6155031;23;19920;-89
2023/07/16 05:56:32;;;;;;;;;;;;;;;19.94;71.67;99465.91;6142413;23;19920;-89
2023/07/16 05:58:58;;;;;;;;;;;;;;;20.00;71.29;99471.94;6142429;23;19990;-90
2023/07/16 06:01:23;;;;;;;;;;;;;;;19.84;70.64;99463.75;6169920;23;19978;-89
2023/07/16 06:03:49;;;;;;;;;;;;;;;19.73;70.79;99475.84;6148899;23;20002;-91
2023/07/16 06:06:15;;;;;;;;;;;;;;;19.73;71.53;99468.31;6144134;23;19919;-91
2023/07/16 06:08:41;;;;;;;;;;;;;;;19.81;71.25;99460.91;6145016;23;19973;-93
2023/07/16 06:11:07;;;;;;;;;;;;;;;19.95;70.93;99469.47;6195183;23;19926;-94
2023/07/16 06:13:34;;;;;;;;;;;;;;;19.97;69.96;99467.13;6170353;23;19920;-93
2023/07/16 06:16:07;;;;;;;;;;;;;;;20.09;69.89;99472.44;6141598;23;19944;-94
2023/07/16 06:18:33;;;;;;;;;;;;;;;20.18;69.56;99472.19;6138481;23;19927;-91
2023/07/16 06:21:02;;;;;;;;;;;;;;;20.36;70.27;99467.72;6164611;23;20369;-93
2023/07/16 06:23:27;;;;;;;;;;;;;;;20.41;69.34;99464.59;6138294;23;19990;-90
2023/07/16 06:25:54;;;;;;;;;;;;;;;20.61;69.38;99464.50;6138322;23;19948;-90
2023/07/16 06:28:20;;;;;;;;;;;;;;;20.70;69.15;99472.56;6141018;23;19920;-91
2023/07/16 06:30:46;;;;;;;;;;;;;;;20.64;68.11;99478.44;6169499;23;20329;-90
2023/07/16 06:33:12;;;;;;;;;;;;;;;20.74;68.81;99478.97;6139166;23;19924;-91
2023/07/16 06:35:37;;;;;;;;;;;;;;;20.74;68.29;99476.19;6141575;23;19926;-91
2023/07/16 06:38:18;;;;;;;;;;;;;;;20.76;68.36;99480.19;6169044;23;19920;-92
2023/07/16 06:40:52;;;;;;;;;;;;;;;20.83;67.39;99474.72;6171437;23;19924;-91
2023/07/16 06:43:18;;;;;;;;;;;;;;;20.73;67.32;99489.28;6143094;23;19920;-92
2023/07/16 06:45:50;;;;;;;;;;;;;;;20.48;67.72;99488.91;6169527;23;20023;-93
2023/07/16 06:48:19;;;;;;;;;;;;;;;20.42;68.96;99482.06;6136948;23;20024;-91
2023/07/16 06:50:46;;;;;;;;;;;;;;;20.47;68.86;99480.94;6175938;23;20352;-94
2023/07/16 06:53:11;;;;;;;;;;;;;;;20.54;67.84;99478.28;6168656;23;19920;-92
2023/07/16 06:55:37;;;;;;;;;;;;;;;20.51;68.46;99473.50;6166805;23;20047;-90
2023/07/16 06:58:03;;;;;;;;;;;;;;;20.63;68.28;99478.81;6141380;23;19919;-90
2023/07/16 07:00:29;;;;;;;;;;;;;;;20.58;67.90;99481.91;6192354;23;19946;-93
2023/07/16 07:02:55;;;;;;;;;;;;;;;20.55;68.36;99486.25;6148407;23;19924;-92
2023/07/16 07:05:22;;;;;;;;;;;;;;;20.74;68.60;99476.97;6221987;23;19923;-89
2023/07/16 07:07:48;;;;;;;;;;;;;;;20.94;68.48;99477.63;6246059;23;19958;-90
2023/07/16 07:10:14;;;;;;;;;;;;;;;21.06;66.55;99490.47;6245113;23;19924;-90
2023/07/16 07:12:40;;;;;;;;;;;;;;;21.05;67.05;99491.63;6217637;23;20333;-89
2023/07/16 07:15:07;;;;;;;;;;;;;;;21.14;67.24;99483.81;6219445;23;19955;-90
2023/07/16 07:17:32;;;;;;;;;;;;;;;21.22;67.22;99491.03;6218577;23;19942;-89
2023/07/16 07:19:58;;;;;;;;;;;;;;;21.20;66.53;99479.50;6220209;23;20424;-91
2023/07/16 07:22:25;;;;;;;;;;;;;;;21.42;65.79;99482.53;6220662;23;19915;-89
2023/07/16 07:24:51;;;;;;;;;;;;;;;21.41;64.38;99486.50;6223356;23;20396;-90
2023/07/16 07:27:32;;;;;;;;;;;;;;;21.32;63.30;99483.97;6219212;23;19967;-90
2023/07/16 07:29:57;;;;;;;;;;;;;;;21.31;65.19;99480.41;6219942;23;19915;-89
2023/07/16 07:32:23;;;;;;;;;;;;;;;21.44;64.74;99486.53;6222288;23;19943;-89
2023/07/16 07:34:50;;;;;;;;;;;;;;;21.43;64.02;99496.06;6250362;23;20374;-90
2023/07/16 07:37:16;;;;;;;;;;;;;;;21.18;63.94;99500.53;6222706;22;19998;-89
2023/07/16 07:39:42;;;;;;;;;;;;;;;21.05;65.08;99483.28;6219496;23;19920;-90
2023/07/16 07:42:09;;;;;;;;;;;;;;;21.24;66.39;99488.69;6219053;23;19920;-90
2023/07/16 07:44:35;;;;;;;;;;;;;;;21.26;64.18;99491.88;6219856;23;19919;-89
2023/07/16 07:47:01;;;;;;;;;;;;;;;21.21;63.20;99492.22;6220761;23;19919;-88
2023/07/16 07:49:27;;;;;;;;;;;;;;;21.27;63.05;99490.69;6243781;23;19920;-90
2023/07/16 07:51:53;;;;;;;;;;;;;;;21.41;63.50;99494.84;6223120;23;20015;-89
2023/07/16 07:54:18;;;;;;;;;;;;;;;21.42;63.49;99499.22;6219599;23;19919;-89
2023/07/16 07:56:45;;;;;;;;;;;;;;;21.63;63.65;99484.75;6219474;23;19973;-91
2023/07/16 07:59:11;;;;;;;;;;;;;;;21.89;62.79;99492.13;6221839;23;19923;-90
2023/07/16 08:01:37;;;;;;;;;;;;;;;22.14;63.74;99490.31;6221934;23;19916;-89
2023/07/16 08:07:18;;;;;;;;;;;;;;;22.08;61.46;99491.06;6242535;23;19927;-87
2023/07/16 08:09:45;;;;;;;;;;;;;;;22.10;62.73;99492.28;6244590;23;19920;-85
2023/07/16 08:12:10;;;;;;;;;;;;;;;22.19;62.04;99498.34;6225742;22;20451;-88
2023/07/16 08:14:36;;;;;;;;;;;;;;;22.17;61.41;99494.34;6282177;22;19926;-89
2023/07/16 08:17:03;;;;;;;;;;;;;;;22.22;60.78;99494.78;6256880;22;19992;-89
2023/07/16 08:19:32;;;;;;;;;;;;;;;21.95;60.73;99496.94;6286090;22;19918;-88
2023/07/16 08:21:58;;;;;;;;;;;;;;;21.92;61.06;99499.69;6309648;22;19930;-84
2023/07/16 08:24:26;;;;;;;;;;;;;;;21.85;60.64;99494.84;6260831;22;19922;-81
2023/07/16 08:26:52;;;;;;;;;;;;;;;21.85;61.17;99494.06;6311701;22;19950;-83
2023/07/16 08:29:18;;;;;;;;;;;;;;;21.84;61.00;99492.47;6282423;22;20252;-84
2023/07/16 08:31:48;;;;;;;;;;;;;;;22.03;60.44;99495.81;6256003;22;19929;-86
2023/07/16 08:34:14;;;;;;;;;;;;;;;21.87;59.56;99497.25;6282245;22;19919;-86
2023/07/16 08:36:42;;;;;;;;;;;;;;;22.00;60.74;99490.22;6228799;22;19918;-84
2023/07/16 08:39:08;;;;;;;;;;;;;;;21.83;58.93;99494.47;6277661;22;19928;-88
2023/07/16 08:41:34;;;;;;;;;;;;;;;21.57;58.62;99495.41;6253736;22;20252;-86
2023/07/16 08:44:06;;;;;;;;;;;;;;;21.33;59.07;99482.81;6305848;22;19919;-86
2023/07/16 08:46:32;;;;;;;;;;;;;;;21.31;61.06;99485.19;6305723;22;19962;-85
2023/07/16 08:48:59;;;;;;;;;;;;;;;21.34;60.78;99492.75;6284174;22;19980;-85
2023/07/16 08:51:25;;;;;;;;;;;;;;;21.40;60.93;99484.91;6279115;22;19927;-86
2023/07/16 08:53:51;;;;;;;;;;;;;;;21.02;60.96;99486.81;6228664;22;20341;-88
2023/07/16 08:56:17;;;;;;;;;;;;;;;21.04;61.22;99474.16;6281191;22;19918;-86
2023/07/16 08:58:46;;;;;;;;;;;;;;;21.00;61.11;99478.09;6280118;22;20345;-87
2023/07/16 09:01:13;;;;;;;;;;;;;;;21.06;62.67;99474.59;6245881;22;20337;-84
2023/07/16 09:03:39;;;;;;;;;;;;;;;21.37;62.16;99474.53;6264853;22;19942;-85
2023/07/16 09:06:06;;;;;;;;;;;;;;;21.50;60.91;99476.66;6251019;22;19972;-84
2023/07/16 09:08:32;;;;;;;;;;;;;;;21.60;60.32;99480.72;6304633;22;19925;-85
2023/07/16 09:10:58;;;;;;;;;;;;;;;21.79;59.36;99480.50;6300668;22;19997;-84
2023/07/16 09:13:26;;;;;;;;;;;;;;;21.74;60.09;99482.84;6279994;22;19919;-85
2023/07/16 09:15:54;;;;;;;;;;;;;;;21.88;60.49;99480.16;6268986;22;19918;-84
2023/07/16 09:18:21;;;;;;;;;;;;;;;21.88;58.28;99490.50;6210542;23;20238;-87
2023/07/16 09:20:48;;;;;;;;;;;;;;;21.63;58.93;99477.19;6174549;23;19927;-88
2023/07/16 09:23:17;;;;;;;;;;;;;;;21.65;60.52;99485.13;6187784;23;19966;-83
2023/07/16 09:25:46;;;;;;;;;;;;;;;22.00;59.52;99481.88;6210857;23;19926;-83
2023/07/16 09:28:13;;;;;;;;;;;;;;;21.97;58.95;99488.19;6176010;23;19919;-84
2023/07/16 09:30:40;;;;;;;;;;;;;;;22.11;58.98;99484.72;6211540;23;20487;-84
2023/07/16 09:33:14;;;;;;;;;;;;;;;22.09;57.92;99489.91;6210663;23;19919;-85
2023/07/16 09:35:41;;;;;;;;;;;;;;;22.14;57.70;99484.75;6166331;23;19926;-85
2023/07/16 09:38:09;;;;;;;;;;;;;;;22.23;58.19;99482.47;6183452;23;19920;-83
2023/07/16 09:40:38;;;;;;;;;;;;;;;22.20;57.54;99480.44;6210035;23;20030;-87
2023/07/16 09:43:05;;;;;;;;;;;;;;;22.19;56.92;99472.50;6207771;23;19919;-83
2023/07/16 09:45:31;;;;;;;;;;;;;;;22.14;55.94;99479.19;6184592;23;19990;-83
2023/07/16 09:47:57;;;;;;;;;;;;;;;22.16;56.73;99482.41;6214196;23;19919;-82
2023/07/16 09:50:24;;;;;;;;;;;;;;;22.32;56.39;99481.31;6187220;23;19942;-86
2023/07/16 09:52:52;;;;;;;;;;;;;;;22.46;55.15;99489.78;6215159;23;19927;-89
2023/07/16 09:55:22;;;;;;;;;;;;;;;22.17;56.56;99486.78;6219296;22;19919;-84
2023/07/16 09:57:59;;;;;;;;;;;;;;;22.00;56.13;99482.66;6281087;22;20071;-91
2023/07/16 10:00:25;;;;;;;;;;;;;;;22.09;58.07;99479.56;6210395;22;19933;-87
2023/07/16 10:02:54;;;;;;;;;;;;;;;22.25;57.32;99473.69;6279988;22;19918;-86
2023/07/16 10:05:27;;;;;;;;;;;;;;;22.41;56.67;99476.19;6288065;22;20001;-86
2023/07/16 10:07:58;;;;;;;;;;;;;;;22.61;56.01;99485.06;6286828;22;19926;-86
2023/07/16 10:10:25;;;;;;;;;;;;;;;22.54;55.14;99480.25;6257798;22;19927;-87
2023/07/16 10:12:56;;;;;;;;;;;;;;;22.70;54.53;99483.53;6308512;22;19923;-88
2023/07/16 10:15:27;;;;;;;;;;;;;;;22.84;53.19;99476.41;6280433;22;19927;-87
2023/07/16 10:17:53;;;;;;;;;;;;;;;22.72;52.02;99486.72;6279963;22;20329;-87
2023/07/16 10:20:28;;;;;;;;;;;;;;;22.66;52.92;99479.13;6256201;22;19918;-85
2023/07/16 10:22:54;;;;;;;;;;;;;;;22.92;53.53;99478.06;6310091;22;20560;-84
2023/07/16 10:25:20;;;;;;;;;;;;;;;23.02;52.42;99476.53;6229616;22;19957;-84
2023/07/16 10:27:47;;;;;;;;;;;;;;;23.09;53.23;99468.97;6309652;22;19926;-84
2023/07/16 10:30:15;;;;;;;;;;;;;;;23.32;52.25;99465.06;6282889;22;20260;-85
2023/07/16 10:32:42;;;;;;;;;;;;;;;23.53;53.87;99458.69;6253674;22;20107;-84
2023/07/16 10:35:09;;;;;;;;;;;;;;;23.49;50.82;99472.66;6254873;22;19919;-86
2023/07/16 10:37:35;;;;;;;;;;;;;;;23.37;50.29;99461.88;6307915;22;19988;-84
2023/07/16 10:40:05;;;;;;;;;;;;;;;23.51;52.17;99463.88;6312369;22;19922;-84
2023/07/16 10:42:31;;;;;;;;;;;;;;;23.54;50.34;99471.44;6281972;22;19919;-88
2023/07/16 10:45:05;;;;;;;;;;;;;;;23.68;50.79;99475.09;6281917;22;19926;-87
2023/07/16 10:47:50;;;;;;;;;;;;;;;23.87;49.37;99473.09;6281753;22;20341;-84
2023/07/16 10:50:18;;;;;;;;;;;;;;;23.98;50.24;99473.13;6311390;22;19982;-87
2023/07/16 10:52:44;;;;;;;;;;;;;;;23.80;49.02;99473.09;6255827;22;19964;-85
2023/07/16 10:55:12;;;;;;;;;;;;;;;23.70;50.04;99476.69;6281099;22;19915;-84
2023/07/16 10:57:37;;;;;;;;;;;;;;;23.57;49.14;99471.44;6306946;22;19919;-90
2023/07/16 11:00:10;;;;;;;;;;;;;;;23.48;49.59;99473.84;6279195;22;19997;-88
2023/07/16 11:02:40;;;;;;;;;;;;;;;23.46;50.82;99462.28;6278683;22;19919;-86
2023/07/16 11:05:12;;;;;;;;;;;;;;;23.72;49.42;99463.16;6305464;22;19918;-86
2023/07/16 11:07:38;;;;;;;;;;;;;;;23.90;49.19;99475.88;6254396;22;19919;-85
2023/07/16 11:10:04;;;;;;;;;;;;;;;23.80;48.78;99473.09;6254109;22;19918;-88
2023/07/16 11:12:29;;;;;;;;;;;;;;;23.44;49.12;99471.06;6277890;22;19929;-86
2023/07/16 11:14:56;;;;;;;;;;;;;;;23.31;49.05;99486.56;6250187;22;19965;-85
2023/07/16 11:17:24;;;;;;;;;;;;;;;23.26;48.91;99477.78;6277186;22;19946;-87
2023/07/16 11:19:51;;;;;;;;;;;;;;;23.23;48.53;99479.38;6304441;22;19919;-88
2023/07/16 11:22:17;;;;;;;;;;;;;;;23.40;48.09;99470.22;6227083;22;19918;-88
2023/07/16 11:24:48;;;;;;;;;;;;;;;23.41;49.66;99463.47;6307646;22;19918;-86
2023/07/16 11:27:15;;;;;;;;;;;;;;;23.63;49.88;99460.69;6306756;22;19926;-86
2023/07/16 11:29:44;;;;;;;;;;;;;;;23.95;50.29;99469.13;6307140;22;19919;-87
2023/07/16 11:32:10;;;;;;;;;;;;;;;23.91;49.17;99455.16;6281104;22;19953;-84
2023/07/16 11:34:36;;;;;;;;;;;;;;;23.83;49.85;99461.94;6309155;22;20268;-86
2023/07/16 11:37:09;;;;;;;;;;;;;;;23.92;51.47;99467.13;6253250;22;19918;-84
2023/07/16 11:39:35;;;;;;;;;;;;;;;23.76;49.04;99463.94;6277831;22;19926;-87
2023/07/16 11:42:02;;;;;;;;;;;;;;;23.62;49.42;99470.28;6304870;22;19923;-85
2023/07/16 11:44:32;;;;;;;;;;;;;;;23.55;50.13;99471.06;6307360;22;19981;-83
2023/07/16 11:47:00;;;;;;;;;;;;;;;23.47;51.54;99480.59;6279054;22;20002;-83
2023/07/16 11:49:26;;;;;;;;;;;;;;;23.37;51.76;99475.81;6309322;22;19919;-86
2023/07/16 11:51:59;;;;;;;;;;;;;;;23.35;51.56;99467.84;6234369;22;19927;-86
2023/07/16 11:54:25;;;;;;;;;;;;;;;23.38;51.30;99475.44;6306679;22;20587;-83
2023/07/16 11:56:52;;;;;;;;;;;;;;;23.65;51.21;99480.66;6254096;22;19922;-82
2023/07/16 11:59:20;;;;;;;;;;;;;;;23.80;49.45;99465.53;6278527;22;19919;-82
2023/07/16 12:01:49;;;;;;;;;;;;;;;24.14;50.30;99471.50;6305473;22;20252;-84
2023/07/16 12:04:17;;;;;;;;;;;;;;;24.28;47.59;99478.25;6277661;22;19926;-86
2023/07/16 12:06:43;;;;;;;;;;;;;;;24.40;46.69;99469.44;6275354;22;19926;-88
2023/07/16 12:09:12;;;;;;;;;;;;;;;24.49;46.54;99472.66;6278041;22;19919;-85
2023/07/16 12:11:38;;;;;;;;;;;;;;;24.57;46.19;99471.44;6280097;22;19919;-83
2023/07/16 12:14:05;;;;;;;;;;;;;;;24.95;47.47;99470.88;6305448;22;20210;-82
2023/07/16 12:16:31;;;;;;;;;;;;;;;24.92;45.57;99466.91;6305363;22;20438;-83
2023/07/16 12:18:57;;;;;;;;;;;;;;;24.39;46.47;99462.25;6224953;22;19919;-85
2023/07/16 12:21:23;;;;;;;;;;;;;;;24.29;47.35;99458.28;6276578;22;19994;-84
2023/07/16 12:23:49;;;;;;;;;;;;;;;24.49;46.02;99450.28;6306732;22;20447;-85
2023/07/16 12:26:15;;;;;;;;;;;;;;;24.64;45.17;99453.84;6250078;22;19998;-84
2023/07/16 12:28:40;;;;;;;;;;;;;;;24.57;43.13;99457.47;6251903;22;20469;-84
2023/07/16 12:31:06;;;;;;;;;;;;;;;24.45;41.76;99449.50;6303958;22;19926;-82
2023/07/16 12:33:32;;;;;;;;;;;;;;;24.56;42.74;99444.66;6278284;22;20272;-84
2023/07/16 12:35:58;;;;;;;;;;;;;;;24.91;43.92;99431.75;6277303;22;19926;-84
2023/07/16 12:38:23;;;;;;;;;;;;;;;25.22;42.99;99434.81;6303831;22;19942;-84
2023/07/16 12:40:49;;;;;;;;;;;;;;;25.33;41.65;99438.34;6305147;22;19919;-86
2023/07/16 12:43:15;;;;;;;;;;;;;;;25.64;42.80;99438.53;6254835;22;19942;-85
2023/07/16 12:45:41;;;;;;;;;;;;;;;25.76;42.08;99436.03;6278184;22;19923;-84
2023/07/16 12:48:08;;;;;;;;;;;;;;;26.01;41.65;99435.81;6305908;22;19925;-86
2023/07/16 12:50:34;;;;;;;;;;;;;;;26.04;39.15;99439.00;6305376;22;20360;-84
2023/07/16 12:53:02;;;;;;;;;;;;;;;25.87;40.09;99435.94;6226844;22;19926;-85
2023/07/16 12:55:31;;;;;;;;;;;;;;;25.59;41.68;99441.75;6305243;22;19919;-84
2023/07/16 12:57:56;;;;;;;;;;;;;;;25.72;40.67;99435.22;6308036;22;19959;-85